Time;durP1;ratioP1;P1;durP2;ratioP2;P2;SDS_P1;SDS_P2;PMS_P1;PMS_P2;Temp;Humidity;BMP_temperature;BMP_pressure;BME280_temperature;BME280_humidity;BME280_pressure;Samples;Min_cycle;Max_cycle;Signal;HPM_P1;HPM_P2
2024/03/26 00:00:10;;;;;;;54.13;29.80;;;;;;;1.82;92.67;99398.13;1758644;81;28067;-66
2024/03/26 00:02:39;;;;;;;48.02;28.17;;;;;;;1.86;92.98;99399.98;1758536;81;25877;-66
2024/03/26 00:05:09;;;;;;;46.95;26.85;;;;;;;1.86;92.74;99398.65;1751649;81;25455;-66
2024/03/26 00:07:37;;;;;;;47.78;27.13;;;;;;;1.85;92.37;99401.05;1751626;81;26069;-66
2024/03/26 00:10:06;;;;;;;45.75;26.37;;;;;;;1.85;92.06;99397.58;1751689;81;25674;-65
2024/03/26 00:12:33;;;;;;;42.13;25.00;;;;;;;1.82;91.79;99402.94;1751779;81;27585;-66
2024/03/26 00:14:59;;;;;;;44.30;24.67;;;;;;;1.77;91.17;99405.63;1751544;81;25789;-65
2024/03/26 00:17:25;;;;;;;46.98;27.87;;;;;;;1.71;90.90;99400.04;1751612;81;25609;-66
2024/03/26 00:19:52;;;;;;;43.80;26.48;;;;;;;1.68;91.69;99400.58;1751605;81;25574;-66
2024/03/26 00:22:22;;;;;;;45.45;27.42;;;;;;;1.66;91.24;99412.05;1751682;81;25474;-66
2024/03/26 00:24:48;;;;;;;49.58;28.00;;;;;;;1.60;91.03;99408.61;1751673;81;27465;-66
2024/03/26 00:27:15;;;;;;;44.00;26.87;;;;;;;1.56;91.17;99414.20;1751575;81;25648;-65
2024/03/26 00:29:42;;;;;;;52.73;29.90;;;;;;;1.54;91.38;99415.55;1751597;81;25603;-66
2024/03/26 00:32:08;;;;;;;48.98;27.37;;;;;;;1.52;91.33;99420.36;1751568;81;25531;-66
2024/03/26 00:34:35;;;;;;;46.85;27.37;;;;;;;1.47;91.45;99416.63;1751632;81;25444;-66
2024/03/26 00:37:01;;;;;;;53.20;29.50;;;;;;;1.46;91.92;99417.70;1751647;81;27481;-65
2024/03/26 00:39:29;;;;;;;51.20;29.98;;;;;;;1.45;92.44;99424.09;1751553;81;26267;-67
2024/03/26 00:41:55;;;;;;;60.98;31.30;;;;;;;1.46;92.81;99421.70;1751782;81;25472;-65
2024/03/26 00:44:24;;;;;;;51.13;29.42;;;;;;;1.45;93.04;99421.43;1751588;81;25526;-66
2024/03/26 00:46:50;;;;;;;54.90;30.80;;;;;;;1.45;93.13;99416.64;1752000;81;25586;-66
2024/03/26 00:49:17;;;;;;;54.77;30.52;;;;;;;1.45;93.52;99424.09;1751663;81;27454;-66
2024/03/26 00:51:46;;;;;;;53.17;30.05;;;;;;;1.42;93.17;99418.51;1751566;81;25397;-66
2024/03/26 00:54:13;;;;;;;54.50;30.48;;;;;;;1.43;93.51;99421.42;1751775;81;25423;-66
2024/03/26 00:56:39;;;;;;;58.38;30.80;;;;;;;1.42;93.43;99429.95;1751560;81;25573;-66
2024/03/26 00:59:05;;;;;;;58.92;31.65;;;;;;;1.41;93.57;99432.89;1751639;81;25599;-66
2024/03/26 01:01:32;;;;;;;54.58;30.17;;;;;;;1.41;93.72;99429.69;1751639;81;27436;-65
2024/03/26 01:03:58;;;;;;;59.80;30.82;;;;;;;1.39;93.45;99426.49;1754014;81;25992;-67
2024/03/26 01:06:25;;;;;;;55.75;29.95;;;;;;;1.38;93.38;99423.58;1758890;81;25548;-65
2024/03/26 01:08:51;;;;;;;54.63;29.30;;;;;;;1.36;92.92;99429.69;1788436;80;25565;-66
2024/03/26 01:11:18;;;;;;;51.13;29.98;;;;;;;1.30;92.49;99430.78;1788470;80;25450;-67
2024/03/26 01:13:45;;;;;;;50.75;28.47;;;;;;;1.25;92.31;99434.24;1788405;80;27463;-67
2024/03/26 01:16:11;;;;;;;52.70;29.37;;;;;;;1.19;92.23;99428.67;1788482;80;25915;-67
2024/03/26 01:18:38;;;;;;;50.35;28.62;;;;;;;1.15;91.98;99444.91;1788586;80;25608;-65
2024/03/26 01:21:05;;;;;;;54.53;28.23;;;;;;;1.09;91.84;99449.44;1788535;80;25584;-65
2024/03/26 01:23:32;;;;;;;44.65;26.20;;;;;;;1.05;91.63;99448.91;1788599;80;25404;-65
2024/03/26 01:25:59;;;;;;;51.75;27.52;;;;;;;0.98;91.44;99457.70;1788550;80;27521;-65
2024/03/26 01:28:25;;;;;;;54.85;28.75;;;;;;;0.93;91.43;99461.14;1788441;80;26010;-65
2024/03/26 01:30:52;;;;;;;55.67;31.30;;;;;;;0.89;91.73;99454.77;1788566;80;25577;-66
2024/03/26 01:33:18;;;;;;;53.38;30.05;;;;;;;0.87;92.41;99464.34;1788505;80;25590;-65
2024/03/26 01:35:54;;;;;;;53.98;30.23;;;;;;;0.85;92.27;99469.14;1788592;80;25521;-65
2024/03/26 01:38:22;;;;;;;62.25;32.95;;;;;;;0.83;92.85;99462.47;1788585;80;27832;-65
2024/03/26 01:40:48;;;;;;;58.78;32.33;;;;;;;0.82;93.13;99464.34;1788460;80;25379;-66
2024/03/26 01:43:16;;;;;;;64.47;33.18;;;;;;;0.82;93.52;99464.34;1788536;80;25549;-66
2024/03/26 01:45:44;;;;;;;68.47;34.88;;;;;;;0.82;93.47;99468.84;1788477;80;25600;-66
2024/03/26 01:48:10;;;;;;;64.25;32.40;;;;;;;0.79;93.40;99468.85;1788610;80;25189;-66
2024/03/26 01:50:39;;;;;;;62.17;33.23;;;;;;;0.77;93.44;99468.33;1788515;80;29534;-66
2024/03/26 01:53:07;;;;;;;61.30;31.87;;;;;;;0.74;93.25;99468.30;1788720;80;25602;-66
2024/03/26 01:55:35;;;;;;;58.98;33.60;;;;;;;0.71;93.21;99466.16;1788538;80;25379;-66
2024/03/26 01:58:06;;;;;;;65.50;33.98;;;;;;;0.70;93.36;99470.45;1788510;80;26322;-65
2024/03/26 02:00:34;;;;;;;62.20;32.85;;;;;;;0.69;93.64;99470.17;1788725;80;25443;-66
2024/03/26 02:03:01;;;;;;;47.60;22.40;;;;;;;0.67;93.34;99480.28;1788819;80;27477;-66
2024/03/26 02:05:28;;;;;;;64.65;35.38;;;;;;;0.63;93.13;99480.52;1786384;80;25734;-66
2024/03/26 02:07:57;;;;;;;60.50;32.55;;;;;;;0.60;93.13;99475.20;1786062;80;25546;-65
2024/03/26 02:10:25;;;;;;;55.60;29.95;;;;;;;0.56;93.00;99478.11;1786189;80;25534;-65
2024/03/26 02:12:51;;;;;;;62.83;32.28;;;;;;;0.51;92.83;99482.91;1786058;80;25396;-66
2024/03/26 02:15:17;;;;;;;57.48;32.03;;;;;;;0.48;92.93;99483.97;1786020;80;27544;-66
2024/03/26 02:17:43;;;;;;;57.67;32.23;;;;;;;0.45;93.06;99485.27;1785958;80;25388;-66
2024/03/26 02:20:13;;;;;;;57.58;32.20;;;;;;;0.42;92.96;99488.45;1786038;80;25625;-65
2024/03/26 02:22:39;;;;;;;62.90;33.28;;;;;;;0.40;92.86;99488.45;1786012;80;25549;-64
2024/03/26 02:25:07;;;;;;;64.37;35.20;;;;;;;0.36;93.49;99492.96;1786057;80;25381;-65
2024/03/26 02:27:34;;;;;;;59.05;32.70;;;;;;;0.34;93.63;99496.42;1786050;80;27446;-65
2024/03/26 02:30:03;;;;;;;62.85;34.55;;;;;;;0.33;93.88;99498.80;1785896;80;25543;-64
2024/03/26 02:32:29;;;;;;;66.30;34.75;;;;;;;0.31;93.99;99502.80;1786057;80;25450;-64
2024/03/26 02:34:55;;;;;;;65.52;34.05;;;;;;;0.30;94.13;99505.17;1785948;80;25516;-65
2024/03/26 02:37:21;;;;;;;64.37;33.73;;;;;;;0.30;94.41;99510.49;1786079;80;25600;-65
2024/03/26 02:39:49;;;;;;;67.80;35.95;;;;;;;0.29;94.63;99510.21;1786026;80;27492;-65
2024/03/26 02:42:15;;;;;;;66.37;35.15;;;;;;;0.27;94.40;99508.34;1785908;80;32859;-66
2024/03/26 02:44:41;;;;;;;67.70;35.25;;;;;;;0.28;94.86;99513.41;1786014;80;25541;-65
2024/03/26 02:47:07;;;;;;;61.15;33.63;;;;;;;0.29;95.07;99507.04;1785922;80;25508;-65
2024/03/26 02:49:33;;;;;;;57.17;32.85;;;;;;;0.28;94.71;99513.41;1786020;80;25436;-65
2024/03/26 02:51:59;;;;;;;63.20;33.33;;;;;;;0.26;94.27;99515.53;1786018;80;27456;-66
2024/03/26 02:54:25;;;;;;;56.35;30.50;;;;;;;0.22;93.91;99523.75;1785947;80;25851;-68
2024/03/26 02:56:54;;;;;;;62.10;32.63;;;;;;;0.16;93.44;99526.13;1786043;79;25465;-65
2024/03/26 02:59:20;;;;;;;61.65;33.65;;;;;;;0.12;93.33;99525.02;1786078;80;26242;-65
2024/03/26 03:01:46;;;;;;;62.85;32.13;;;;;;;0.10;94.10;99526.64;1785995;80;25403;-65
2024/03/26 03:04:13;;;;;;;67.70;35.10;;;;;;;0.07;94.24;99519.68;1785944;80;27727;-65
2024/03/26 03:06:39;;;;;;;64.17;34.60;;;;;;;0.07;94.76;99521.01;1785782;80;25545;-65
2024/03/26 03:09:06;;;;;;;61.83;32.98;;;;;;;0.04;94.38;99525.00;1785697;80;25654;-65
2024/03/26 03:11:34;;;;;;;63.85;32.00;;;;;;;0.02;94.10;99524.47;1785693;80;26386;-66
2024/03/26 03:14:00;;;;;;;55.78;32.20;;;;;;;-0.01;93.83;99524.97;1785745;80;25440;-66
2024/03/26 03:16:26;;;;;;;64.58;34.08;;;;;;;-0.04;93.65;99518.84;1785710;80;27668;-65
2024/03/26 03:18:52;;;;;;;60.65;33.48;;;;;;;-0.08;93.40;99525.20;1785569;80;25604;-66
2024/03/26 03:21:19;;;;;;;60.88;31.70;;;;;;;-0.13;93.21;99524.38;1785735;80;25580;-65
2024/03/26 03:23:46;;;;;;;56.85;30.05;;;;;;;-0.20;92.99;99521.94;1785694;80;25592;-65
2024/03/26 03:26:12;;;;;;;58.63;32.05;;;;;;;-0.25;92.84;99520.58;1785756;80;25552;-65
2024/03/26 03:28:39;;;;;;;62.05;31.90;;;;;;;-0.30;92.81;99524.00;1785714;80;27480;-65
2024/03/26 03:31:06;;;;;;;62.65;32.80;;;;;;;-0.34;92.85;99520.77;1759177;80;25544;-65
2024/03/26 03:33:32;;;;;;;55.35;31.65;;;;;;;-0.40;92.70;99523.39;1785670;80;25392;-65
2024/03/26 03:36:00;;;;;;;64.05;32.20;;;;;;;-0.45;92.46;99529.20;1785642;80;25566;-66
2024/03/26 03:38:26;;;;;;;62.38;33.85;;;;;;;-0.50;92.20;99531.28;1785686;80;25796;-65
2024/03/26 03:40:52;;;;;;;57.00;31.62;;;;;;;-0.53;92.49;99530.46;1785681;80;26537;-65
2024/03/26 03:43:19;;;;;;;60.40;31.73;;;;;;;-0.57;92.67;99533.36;1785577;80;25507;-66
2024/03/26 03:45:45;;;;;;;62.85;33.35;;;;;;;-0.60;92.96;99532.53;1785665;80;25367;-66
2024/03/26 03:48:11;;;;;;;62.08;34.03;;;;;;;-0.62;92.75;99541.29;1785604;80;27760;-66
2024/03/26 03:50:37;;;;;;;64.35;34.00;;;;;;;-0.65;92.72;99545.77;1785736;80;25445;-66
2024/03/26 03:53:04;;;;;;;71.25;35.28;;;;;;;-0.67;92.65;99548.68;1785705;80;27466;-66
2024/03/26 03:55:31;;;;;;;68.80;34.58;;;;;;;-0.70;92.87;99545.73;1785670;80;25790;-66
2024/03/26 03:57:58;;;;;;;70.37;36.28;;;;;;;-0.72;93.08;99548.64;1785638;80;25588;-66
2024/03/26 04:00:24;;;;;;;65.40;36.03;;;;;;;-0.75;93.05;99547.81;1785667;80;27773;-66
2024/03/26 04:02:51;;;;;;;58.87;32.58;;;;;;;-0.78;92.82;99558.42;1785734;80;25562;-66
2024/03/26 04:05:20;;;;;;;63.87;32.85;;;;;;;-0.80;93.00;99558.38;1785711;80;27495;-66
2024/03/26 04:07:47;;;;;;;62.08;33.30;;;;;;;-0.82;93.51;99557.33;1785987;80;26100;-66
2024/03/26 04:10:16;;;;;;;61.53;33.75;;;;;;;-0.82;94.04;99556.01;1785990;79;25533;-66
2024/03/26 04:12:42;;;;;;;63.50;34.13;;;;;;;-0.82;93.97;99552.02;1785916;80;25511;-66
2024/03/26 04:15:12;;;;;;;64.12;33.53;;;;;;;-0.84;93.68;99549.33;1785949;80;25336;-66
2024/03/26 04:17:38;;;;;;;63.50;34.43;;;;;;;-0.85;93.59;99557.01;1786115;80;27449;-65
2024/03/26 04:20:08;;;;;;;73.85;36.75;;;;;;;-0.88;93.38;99558.33;1785847;80;25594;-66
2024/03/26 04:22:34;;;;;;;65.78;35.90;;;;;;;-0.88;93.20;99558.86;1785980;80;25548;-66
2024/03/26 04:25:00;;;;;;;73.55;37.17;;;;;;;-0.90;93.56;99563.59;1785956;80;26040;-65
2024/03/26 04:27:26;;;;;;;71.28;37.53;;;;;;;-0.91;93.69;99563.34;1785919;80;25545;-66
2024/03/26 04:29:53;;;;;;;68.15;36.88;;;;;;;-0.93;93.48;99560.94;1785955;79;27495;-66
2024/03/26 04:32:19;;;;;;;70.92;36.90;;;;;;;-0.94;93.16;99564.63;1785789;80;27360;-65
2024/03/26 04:34:45;;;;;;;73.87;37.53;;;;;;;-0.96;93.46;99572.84;1785943;80;25623;-66
2024/03/26 04:37:11;;;;;;;63.95;35.80;;;;;;;-0.97;93.69;99569.93;1785872;80;25502;-65
2024/03/26 04:39:37;;;;;;;64.70;34.63;;;;;;;-0.96;93.63;99582.67;1785952;80;25590;-65
2024/03/26 04:42:03;;;;;;;67.58;33.98;;;;;;;-0.97;93.82;99581.05;1785924;80;27513;-65
2024/03/26 04:44:29;;;;;;;68.78;36.33;;;;;;;-0.97;94.64;99581.05;1785852;80;25706;-66
2024/03/26 04:46:56;;;;;;;65.00;32.88;;;;;;;-0.92;95.38;99584.30;1785944;80;25581;-66
2024/03/26 04:49:22;;;;;;;68.57;35.68;;;;;;;-0.90;95.64;99586.98;1785961;80;27689;-66
2024/03/26 04:51:48;;;;;;;69.10;34.40;;;;;;;-0.86;95.95;99601.89;1786145;80;25553;-66
2024/03/26 04:54:14;;;;;;;70.15;33.70;;;;;;;-0.87;96.10;99597.12;1786100;80;27473;-66
2024/03/26 04:56:40;;;;;;;66.90;33.25;;;;;;;-0.83;96.15;99595.55;1761446;80;25698;-65
2024/03/26 04:59:06;;;;;;;71.45;33.92;;;;;;;-0.79;96.41;99597.97;1786167;79;25491;-66
2024/03/26 05:01:34;;;;;;;68.52;33.78;;;;;;;-0.73;96.84;99604.66;1786073;80;25627;-66
2024/03/26 05:04:00;;;;;;;67.35;34.33;;;;;;;-0.70;97.05;99604.16;1786190;80;25190;-66
2024/03/26 05:06:26;;;;;;;62.55;32.25;;;;;;;-0.66;97.14;99602.63;1785919;78;27492;-66
2024/03/26 05:08:52;;;;;;;67.03;31.37;;;;;;;-0.62;97.39;99605.83;1785656;80;25416;-64
2024/03/26 05:11:29;;;;;;;;;;;;;;;;;;;;;
2024/03/26 05:13:46;;;;;;;68.97;33.42;;;;;;;-0.51;97.97;99613.90;1693379;84;26051;-65
2024/03/26 05:16:12;;;;;;;67.82;32.03;;;;;;;-0.45;98.21;99618.22;1668633;86;25505;-65
2024/03/26 05:18:39;;;;;;;66.80;32.60;;;;;;;-0.39;98.34;99623.86;1676399;85;27751;-66
2024/03/26 05:21:05;;;;;;;67.05;32.90;;;;;;;-0.32;98.47;99622.30;1676301;85;25750;-66
2024/03/26 05:23:31;;;;;;;67.00;31.68;;;;;;;-0.29;98.60;99614.64;1676462;85;25618;-66
2024/03/26 05:25:58;;;;;;;65.20;32.38;;;;;;;-0.22;98.76;99617.88;1676362;85;27691;-65
2024/03/26 05:28:24;;;;;;;71.07;32.33;;;;;;;-0.14;98.98;99625.91;1676448;85;25576;-66
2024/03/26 05:30:53;;;;;;;82.37;33.67;;;;;;;-0.08;98.94;99629.42;1676349;84;27541;-65
2024/03/26 05:33:19;;;;;;;81.00;33.73;;;;;;;-0.01;99.37;99628.14;1676457;85;25628;-66
2024/03/26 05:35:47;;;;;;;74.30;34.55;;;;;;;0.06;99.29;99631.12;1676383;85;25467;-66
2024/03/26 05:38:13;;;;;;;80.75;36.58;;;;;;;0.14;99.54;99622.13;1668476;86;25668;-65
2024/03/26 05:40:39;;;;;;;83.55;35.73;;;;;;;0.22;99.66;99628.02;1676359;85;25435;-65
2024/03/26 05:43:05;;;;;;;78.45;35.13;;;;;;;0.28;99.59;99629.66;1676370;85;27485;-65
2024/03/26 05:45:33;;;;;;;92.33;34.43;;;;;;;0.33;99.51;99626.50;1764694;80;25564;-67
2024/03/26 05:47:59;;;;;;;87.42;34.70;;;;;;;0.40;99.38;99632.92;1758806;81;25564;-67
2024/03/26 05:50:27;;;;;;;81.17;34.30;;;;;;;0.47;99.78;99631.37;1758756;81;25551;-67
2024/03/26 05:52:55;;;;;;;94.20;35.20;;;;;;;0.57;100.00;99634.62;1758732;81;25553;-66
2024/03/26 05:55:21;;;;;;;91.90;35.55;;;;;;;0.65;100.00;99634.92;1758634;81;27488;-66
2024/03/26 05:57:48;;;;;;;87.60;35.03;;;;;;;0.72;99.92;99643.47;1758564;81;25366;-68
2024/03/26 06:00:18;;;;;;;75.95;35.48;;;;;;;0.79;100.00;99643.23;1758675;81;25400;-65
2024/03/26 06:02:45;;;;;;;93.47;34.35;;;;;;;0.88;100.00;99639.55;1758699;81;25594;-66
2024/03/26 06:05:11;;;;;;;107.90;37.25;;;;;;;0.99;100.00;99646.52;1757673;81;25598;-65
2024/03/26 06:07:37;;;;;;;122.20;37.28;;;;;;;1.04;100.00;99643.87;1751775;81;27366;-66
2024/03/26 06:10:07;;;;;;;91.05;35.68;;;;;;;1.10;100.00;99643.34;1751644;81;25708;-66
2024/03/26 06:12:33;;;;;;;101.95;33.92;;;;;;;1.19;100.00;99640.46;1751497;81;25639;-66
2024/03/26 06:14:59;;;;;;;78.37;34.63;;;;;;;1.33;100.00;99642.59;1751246;81;26181;-65
2024/03/26 06:17:25;;;;;;;70.35;34.03;;;;;;;1.40;100.00;99640.50;1751445;81;25720;-65
2024/03/26 06:19:51;;;;;;;81.75;35.90;;;;;;;1.52;100.00;99645.05;1751641;81;29758;-65
2024/03/26 06:22:17;;;;;;;73.67;33.23;;;;;;;1.66;100.00;99646.12;1751742;81;25477;-66
2024/03/26 06:24:44;;;;;;;104.25;34.48;;;;;;;1.72;100.00;99652.28;1751650;81;25693;-66
2024/03/26 06:27:11;;;;;;;107.75;34.95;;;;;;;1.75;99.97;99654.39;1751687;81;25600;-65
2024/03/26 06:29:39;;;;;;;66.25;33.58;;;;;;;1.76;99.43;99661.88;1751831;81;25626;-65
2024/03/26 06:32:08;;;;;;;86.60;33.63;;;;;;;1.80;100.00;99660.27;1751735;81;27561;-65
2024/03/26 06:34:39;;;;;;;70.37;33.20;;;;;;;1.89;100.00;99659.20;1751667;81;25588;-66
2024/03/26 06:37:07;;;;;;;77.72;34.10;;;;;;;2.01;100.00;99660.55;1751730;81;25607;-65
2024/03/26 06:39:34;;;;;;;82.35;34.10;;;;;;;2.15;100.00;99673.35;1751715;81;26251;-64
2024/03/26 06:42:02;;;;;;;78.07;33.70;;;;;;;2.27;100.00;99675.75;1751770;81;25569;-65
2024/03/26 06:44:28;;;;;;;102.05;35.30;;;;;;;2.34;100.00;99671.72;1751699;81;28105;-65
2024/03/26 06:46:55;;;;;;;85.28;35.10;;;;;;;2.48;100.00;99679.97;1751620;81;25517;-65
2024/03/26 06:49:24;;;;;;;77.60;35.80;;;;;;;2.61;100.00;99675.95;1751709;81;25470;-65
2024/03/26 06:51:51;;;;;;;79.75;36.28;;;;;;;2.72;100.00;99676.71;1751836;81;26968;-65
2024/03/26 06:54:17;;;;;;;114.22;36.10;;;;;;;2.79;100.00;99675.88;1751726;81;25422;-67
2024/03/26 06:56:45;;;;;;;69.10;34.73;;;;;;;2.83;100.00;99672.95;1751675;81;27538;-65
2024/03/26 06:59:12;;;;;;;77.92;35.80;;;;;;;2.89;100.00;99681.19;1751568;81;25540;-65
2024/03/26 07:01:39;;;;;;;76.87;35.48;;;;;;;2.98;100.00;99678.78;1751654;81;25385;-64
2024/03/26 07:04:06;;;;;;;86.28;38.25;;;;;;;3.04;100.00;99679.55;1751680;81;25619;-65
2024/03/26 07:06:32;;;;;;;85.47;35.48;;;;;;;3.15;100.00;99679.75;1755493;81;25909;-66
2024/03/26 07:09:00;;;;;;;81.05;32.80;;;;;;;3.29;100.00;99683.98;1758950;81;27455;-65
2024/03/26 07:11:27;;;;;;;83.42;33.08;;;;;;;3.32;100.00;99687.42;1758827;81;26022;-65
2024/03/26 07:13:53;;;;;;;99.72;32.45;;;;;;;3.32;99.02;99690.09;1758900;81;25618;-65
2024/03/26 07:16:21;;;;;;;88.72;30.97;;;;;;;3.29;98.52;99694.68;1758851;81;25498;-65
2024/03/26 07:18:47;;;;;;;95.87;32.25;;;;;;;3.27;98.01;99693.62;1758923;81;25615;-66
2024/03/26 07:21:13;;;;;;;61.08;31.00;;;;;;;3.29;97.82;99694.13;1758935;81;27502;-69
2024/03/26 07:23:44;;;;;;;76.47;33.50;;;;;;;3.28;98.00;99695.20;1758851;81;25396;-65
2024/03/26 07:26:10;;;;;;;63.87;30.00;;;;;;;3.36;99.27;99696.52;1759038;81;25541;-65
2024/03/26 07:28:38;;;;;;;62.27;29.92;;;;;;;3.49;100.00;99698.58;1758841;81;25610;-65
2024/03/26 07:31:09;;;;;;;75.65;31.95;;;;;;;3.59;99.64;99703.05;1758983;81;25425;-65
2024/03/26 07:33:37;;;;;;;68.65;32.67;;;;;;;3.65;98.88;99703.84;1758428;81;27459;-65
2024/03/26 07:36:08;;;;;;;83.12;33.38;;;;;;;3.68;98.84;99700.62;1758886;81;25177;-65
2024/03/26 07:38:34;;;;;;;71.80;34.10;;;;;;;3.76;98.83;99694.66;1788597;80;25469;-65
2024/03/26 07:41:00;;;;;;;65.00;31.10;;;;;;;3.79;98.68;99693.31;1788433;80;26122;-66
2024/03/26 07:43:28;;;;;;;65.50;31.80;;;;;;;3.91;99.45;99695.09;1788504;80;25382;-66
2024/03/26 07:45:54;;;;;;;59.03;30.37;;;;;;;3.97;98.92;99695.84;1788486;80;27473;-68
2024/03/26 07:48:21;;;;;;;63.78;29.67;;;;;;;4.06;99.32;99690.96;1788364;80;25709;-66
2024/03/26 07:50:47;;;;;;;65.57;30.30;;;;;;;4.23;100.00;99685.75;1788472;80;25549;-66
2024/03/26 07:53:13;;;;;;;80.25;31.05;;;;;;;4.30;99.25;99691.02;1788428;80;25604;-67
2024/03/26 07:55:39;;;;;;;69.97;31.95;;;;;;;4.38;99.25;99693.64;1788510;80;25560;-65
2024/03/26 07:58:05;;;;;;;71.70;31.33;;;;;;;4.42;98.53;99695.22;1788355;79;29661;-65
2024/03/26 08:00:34;;;;;;;68.30;31.02;;;;;;;4.52;99.55;99696.45;1788326;79;25537;-66
2024/03/26 08:03:00;;;;;;;57.98;29.92;;;;;;;4.55;98.33;99694.55;1788419;80;25533;-66
2024/03/26 08:05:26;;;;;;;60.12;29.67;;;;;;;4.62;98.62;99692.34;1788045;80;25530;-66
2024/03/26 08:07:55;;;;;;;62.80;31.00;;;;;;;4.68;97.61;99694.41;1784322;80;25680;-65
2024/03/26 08:10:21;;;;;;;66.17;31.48;;;;;;;4.68;97.07;99695.23;1784590;80;27465;-65
2024/03/26 08:12:48;;;;;;;63.10;30.55;;;;;;;4.60;95.90;99694.50;1784481;80;25947;-65
2024/03/26 08:15:14;;;;;;;64.62;31.42;;;;;;;4.62;96.96;99696.35;1784503;80;25985;-65
2024/03/26 08:17:40;;;;;;;58.92;30.00;;;;;;;4.67;96.94;99698.19;1784376;80;25713;-66
2024/03/26 08:20:11;;;;;;;64.80;31.82;;;;;;;4.78;98.21;99701.55;1784537;80;25709;-65
2024/03/26 08:22:39;;;;;;;60.00;32.88;;;;;;;4.92;98.72;99694.44;1785449;80;27540;-65
2024/03/26 08:25:08;;;;;;;55.80;29.70;;;;;;;5.16;97.62;99702.98;1785655;80;25585;-67
2024/03/26 08:27:34;;;;;;;65.67;35.70;;;;;;;5.27;97.07;99707.14;1785880;80;25443;-67
2024/03/26 08:30:04;;;;;;;81.10;47.65;;;;;;;5.58;98.88;99701.38;1785850;80;25493;-70
2024/03/26 08:32:30;;;;;;;55.17;30.40;;;;;;;6.08;100.00;99697.72;1786119;80;25438;-64
2024/03/26 08:34:56;;;;;;;53.50;28.27;;;;;;;6.60;98.65;99700.87;1785800;80;27979;-65
2024/03/26 08:37:24;;;;;;;49.33;28.25;;;;;;;6.82;97.52;99702.88;1785618;80;25603;-64
2024/03/26 08:39:50;;;;;;;51.23;28.10;;;;;;;7.08;97.04;99706.68;1785721;79;25538;-64
2024/03/26 08:42:18;;;;;;;47.17;26.65;;;;;;;7.98;99.37;99699.88;1785612;80;25932;-65
2024/03/26 08:44:45;;;;;;;41.37;24.52;;;;;;;8.67;94.07;99706.28;1785699;80;25372;-65
2024/03/26 08:47:11;;;;;;;41.95;22.20;;;;;;;9.25;92.98;99706.33;1785631;80;28024;-64
2024/03/26 08:49:37;;;;;;;38.90;22.37;;;;;;;10.07;90.54;99689.75;1785587;80;25515;-64
2024/03/26 08:52:05;;;;;;;34.58;21.05;;;;;;;11.27;87.46;99698.11;1785783;80;25603;-65
2024/03/26 08:54:33;;;;;;;34.90;22.37;;;;;;;11.97;85.36;99702.50;1785594;80;25537;-65
2024/03/26 08:56:59;;;;;;;30.37;19.42;;;;;;;12.59;85.01;99693.97;1785611;80;25534;-65
2024/03/26 08:59:25;;;;;;;31.17;21.52;;;;;;;13.38;79.74;99701.93;1785692;80;27321;-65
2024/03/26 09:01:53;;;;;;;31.30;20.95;;;;;;;13.72;75.56;99699.01;1785617;80;25588;-65
2024/03/26 09:04:21;;;;;;;27.85;19.10;;;;;;;14.30;77.04;99702.19;1785695;80;25629;-67
2024/03/26 09:06:48;;;;;;;29.90;20.57;;;;;;;15.09;73.69;99700.07;1785832;79;25542;-65
2024/03/26 09:09:16;;;;;;;30.77;21.10;;;;;;;15.71;74.21;99694.59;1786000;79;25541;-66
2024/03/26 09:11:42;;;;;;;26.80;19.20;;;;;;;16.51;68.78;99690.30;1786075;80;27313;-66
2024/03/26 09:14:09;;;;;;;33.13;24.12;;;;;;;16.77;66.10;99692.86;1785882;80;25374;-65
2024/03/26 09:16:35;;;;;;;28.80;21.57;;;;;;;17.04;63.22;99691.56;1786040;80;25539;-65
2024/03/26 09:19:01;;;;;;;26.85;19.73;;;;;;;17.22;63.34;99683.06;1786034;79;25441;-65
2024/03/26 09:21:29;;;;;;;28.17;19.57;;;;;;;17.47;62.12;99685.34;1786038;80;25437;-64
2024/03/26 09:23:55;;;;;;;26.10;18.75;;;;;;;17.73;61.84;99681.78;1785969;80;27929;-63
2024/03/26 09:26:21;;;;;;;25.32;18.10;;;;;;;17.94;61.24;99681.27;1785861;79;25378;-63
2024/03/26 09:28:49;;;;;;;24.80;18.25;;;;;;;18.06;56.86;99677.49;1785949;80;25455;-63
2024/03/26 09:31:15;;;;;;;25.02;17.85;;;;;;;17.91;56.78;99673.80;1785996;80;25545;-63
2024/03/26 09:33:42;;;;;;;23.80;16.25;;;;;;;17.76;56.57;99674.20;1786069;79;25248;-63
2024/03/26 09:36:09;;;;;;;22.95;16.73;;;;;;;17.57;56.64;99670.23;1786187;80;27325;-62
2024/03/26 09:38:36;;;;;;;26.17;17.77;;;;;;;17.26;58.16;99670.81;1786291;80;25435;-63
2024/03/26 09:41:04;;;;;;;29.25;16.57;;;;;;;17.37;57.89;99673.13;1786126;80;25533;-63
2024/03/26 09:43:34;;;;;;;26.07;17.63;;;;;;;17.39;57.67;99673.53;1786326;80;25505;-61
2024/03/26 09:46:01;;;;;;;22.98;16.12;;;;;;;17.19;56.63;99670.12;1786160;80;25624;-64
2024/03/26 09:48:29;;;;;;;30.10;22.80;;;;;;;17.18;57.20;99674.81;1761989;80;27330;-64
2024/03/26 09:50:58;;;;;;;31.00;25.97;;;;;;;17.39;55.02;99676.27;1786183;79;25617;-65
2024/03/26 09:53:28;;;;;;;22.73;15.83;;;;;;;17.12;56.03;99662.61;1786171;80;25433;-60
2024/03/26 09:55:54;;;;;;;18.92;15.43;;;;;;;17.07;54.51;99665.66;1786185;80;25601;-62
2024/03/26 09:58:20;;;;;;;21.33;16.15;;;;;;;16.73;54.12;99670.97;1786062;79;25380;-61
2024/03/26 10:00:50;;;;;;;18.73;14.95;;;;;;;16.70;54.72;99657.26;1786023;80;27384;-61
2024/03/26 10:03:22;;;;;;;19.57;14.75;;;;;;;16.89;55.34;99653.67;1785208;80;25978;-61
2024/03/26 10:05:48;;;;;;;19.20;15.00;;;;;;;16.83;53.72;99653.18;1785662;80;25387;-62
2024/03/26 10:08:14;;;;;;;18.35;13.60;;;;;;;17.04;55.82;99645.91;1785973;80;25689;-62
2024/03/26 10:10:45;;;;;;;15.93;12.68;;;;;;;17.26;54.63;99648.36;1786105;80;25396;-62
2024/03/26 10:13:13;;;;;;;17.02;13.08;;;;;;;17.44;54.32;99644.51;1786150;80;27232;-63
2024/03/26 10:15:46;;;;;;;16.62;12.50;;;;;;;17.54;52.14;99634.87;1786035;80;25532;-65
2024/03/26 10:18:12;;;;;;;14.65;10.43;;;;;;;17.63;51.20;99620.91;1786114;80;25613;-66
2024/03/26 10:20:38;;;;;;;16.10;11.38;;;;;;;17.87;49.99;99629.22;1786012;80;25616;-64
2024/03/26 10:23:08;;;;;;;17.48;12.85;;;;;;;18.10;49.58;99630.44;1786193;80;25431;-64
2024/03/26 10:25:34;;;;;;;14.68;11.33;;;;;;;18.14;46.79;99614.83;1761662;80;27697;-65
2024/03/26 10:28:05;;;;;;;15.33;12.70;;;;;;;18.15;46.39;99631.47;1786250;80;25592;-65
2024/03/26 10:30:31;;;;;;;;;;;;;;;18.13;48.05;99621.45;1788847;80;25557;-65
2024/03/26 10:33:00;;;;;;;14.35;11.08;;;;;;;18.49;48.29;99620.44;1786179;80;25712;-65
2024/03/26 10:35:28;;;;;;;16.60;11.65;;;;;;;18.79;47.09;99613.40;1786312;80;25380;-67
2024/03/26 10:37:57;;;;;;;14.13;11.50;;;;;;;18.76;45.45;99602.42;1786121;79;27311;-66
2024/03/26 10:41:01;;;;;;;16.02;10.93;;;;;;;18.92;46.65;99600.22;1786085;80;25450;-65
2024/03/26 10:43:29;;;;;;;14.35;10.78;;;;;;;19.45;47.71;99597.53;1786106;80;25391;-66
2024/03/26 10:45:58;;;;;;;12.93;10.25;;;;;;;19.79;45.97;99602.77;1786185;80;26190;-66
2024/03/26 10:48:29;;;;;;;12.45;10.15;;;;;;;20.29;47.44;99605.58;1786241;80;25393;-65
2024/03/26 10:50:58;;;;;;;13.58;10.13;;;;;;;20.48;42.74;99605.80;1786133;80;27928;-65
2024/03/26 10:53:29;;;;;;;10.78;9.40;;;;;;;20.08;43.07;99600.86;1786121;80;25379;-65
2024/03/26 10:56:01;;;;;;;12.20;9.38;;;;;;;20.49;44.14;99598.34;1786082;80;25610;-65
2024/03/26 10:58:27;;;;;;;9.45;8.40;;;;;;;20.73;41.48;99603.64;1740510;81;25468;-66
2024/03/26 11:00:56;;;;;;;11.75;9.48;;;;;;;20.83;41.57;99605.59;1764386;81;25431;-66
2024/03/26 11:03:26;;;;;;;10.82;8.83;;;;;;;20.66;40.92;99594.04;1786246;80;27860;-65
2024/03/26 11:06:00;;;;;;;11.30;8.58;;;;;;;20.52;41.22;99592.84;1764300;81;25918;-65
2024/03/26 11:08:28;;;;;;;10.38;8.18;;;;;;;20.64;41.48;99583.44;1764051;81;25367;-65
2024/03/26 11:11:06;;;;;;;9.70;8.30;;;;;;;21.14;42.55;99581.16;1785692;80;25456;-65
2024/03/26 11:13:34;;;;;;;7.92;7.05;;;;;;;21.22;39.93;99579.18;1758308;81;25622;-66
2024/03/26 11:16:05;;;;;;;10.18;8.25;;;;;;;21.45;42.47;99575.36;1758828;81;27304;-65
2024/03/26 11:18:35;;;;;;;9.43;7.62;;;;;;;21.97;41.95;99560.14;1758607;81;25586;-67
2024/03/26 11:21:09;;;;;;;10.45;7.62;;;;;;;21.94;39.73;99563.69;1758704;81;25206;-65